Time;durP1;ratioP1;P1;durP2;ratioP2;P2;SDS_P1;SDS_P2;PMS_P1;PMS_P2;Temp;Humidity;BMP_temperature;BMP_pressure;BME280_temperature;BME280_humidity;BME280_pressure;Samples;Min_cycle;Max_cycle;Signal;HPM_P1;HPM_P2
2023/07/27 00:02:51;;;;;;;4.57;2.47;;;;;;;11.89;100.00;100526.72;6060079;28;20040;-66
2023/07/27 00:05:47;;;;;;;4.03;1.80;;;;;;;11.81;100.00;100515.22;6058340;28;20055;-67
2023/07/27 00:08:42;;;;;;;4.77;1.97;;;;;;;11.75;100.00;100507.88;6060989;28;20025;-67
2023/07/27 00:11:37;;;;;;;4.32;1.70;;;;;;;11.77;100.00;100522.66;6051261;28;20029;-66
2023/07/27 00:14:32;;;;;;;5.60;1.80;;;;;;;11.94;100.00;100518.25;6071646;28;20389;-66
2023/07/27 00:17:28;;;;;;;3.70;2.03;;;;;;;11.99;100.00;100534.53;6056047;28;20034;-66
2023/07/27 00:20:23;;;;;;;5.73;2.40;;;;;;;11.84;100.00;100513.06;6050459;28;20037;-67
2023/07/27 00:23:18;;;;;;;5.17;2.10;;;;;;;12.05;100.00;100522.44;6055414;28;20041;-66
2023/07/27 00:26:14;;;;;;;5.50;2.30;;;;;;;11.75;100.00;100499.91;6050074;28;20504;-66
2023/07/27 00:29:09;;;;;;;4.67;2.13;;;;;;;11.75;100.00;100519.31;6050824;28;20129;-66
2023/07/27 00:32:05;;;;;;;4.50;2.33;;;;;;;11.64;100.00;100519.56;6052950;28;20021;-67
2023/07/27 00:35:00;;;;;;;4.68;2.58;;;;;;;11.59;100.00;100497.97;6054985;28;20030;-67
2023/07/27 00:37:55;;;;;;;6.73;2.50;;;;;;;11.58;100.00;100514.88;6055082;28;20034;-67
2023/07/27 00:40:51;;;;;;;7.00;2.60;;;;;;;11.71;100.00;100509.19;6051023;28;20022;-67
2023/07/27 00:43:46;;;;;;;4.87;2.40;;;;;;;11.74;100.00;100485.78;6066769;28;20037;-67
2023/07/27 00:46:41;;;;;;;6.80;2.47;;;;;;;11.81;100.00;100502.75;6064335;28;20264;-66
2023/07/27 00:49:37;;;;;;;4.72;2.47;;;;;;;11.81;100.00;100485.97;6050174;28;20068;-66
2023/07/27 00:52:32;;;;;;;7.17;3.00;;;;;;;11.86;100.00;100479.19;6050742;28;20118;-66
2023/07/27 00:55:27;;;;;;;7.80;3.47;;;;;;;11.89;100.00;100470.91;6049743;28;20300;-66
2023/07/27 00:58:23;;;;;;;5.33;2.40;;;;;;;11.88;100.00;100468.41;6050081;28;20053;-66
2023/07/27 01:01:18;;;;;;;6.90;2.90;;;;;;;11.97;100.00;100477.22;6049325;28;20034;-66
2023/07/27 01:04:14;;;;;;;5.93;2.80;;;;;;;11.96;100.00;100486.22;6049115;28;20041;-66
2023/07/27 01:07:09;;;;;;;6.50;2.55;;;;;;;11.84;100.00;100467.06;6071161;28;20083;-66
2023/07/27 01:10:05;;;;;;;6.17;2.93;;;;;;;11.81;100.00;100462.06;6050670;28;20034;-66
2023/07/27 01:13:05;;;;;;;9.95;4.13;;;;;;;11.72;100.00;100466.50;6049719;28;20800;-66
2023/07/27 01:16:05;;;;;;;6.57;2.88;;;;;;;11.75;100.00;100476.81;6060712;28;20046;-66
2023/07/27 01:19:16;;;;;;;8.30;2.97;;;;;;;11.73;100.00;100470.00;6048535;28;20040;-66
2023/07/27 01:22:32;;;;;;;5.95;3.05;;;;;;;11.72;100.00;100463.84;6049751;28;20516;-66
2023/07/27 01:25:56;;;;;;;5.80;2.85;;;;;;;11.72;100.00;100463.84;6053928;28;20045;-66
2023/07/27 01:29:01;;;;;;;7.78;3.13;;;;;;;11.71;100.00;100456.88;6052677;28;20034;-66
2023/07/27 01:31:56;;;;;;;5.97;3.22;;;;;;;11.63;100.00;100448.84;6048632;28;20041;-66
2023/07/27 01:34:54;;;;;;;7.07;3.33;;;;;;;11.77;100.00;100450.94;6058975;28;20034;-66
2023/07/27 01:37:51;;;;;;;8.05;3.00;;;;;;;11.87;100.00;100446.34;6054311;28;20049;-67
2023/07/27 01:40:46;;;;;;;5.15;2.63;;;;;;;11.89;100.00;100430.22;6053410;28;20022;-66
2023/07/27 01:43:42;;;;;;;4.82;2.60;;;;;;;12.09;100.00;100444.06;6065668;28;20484;-66
2023/07/27 01:46:39;;;;;;;6.28;2.70;;;;;;;12.16;100.00;100440.59;6056468;28;20370;-66
2023/07/27 01:49:37;;;;;;;5.72;2.72;;;;;;;12.14;100.00;100416.00;6055633;28;20029;-66
2023/07/27 01:52:33;;;;;;;5.45;2.53;;;;;;;12.14;100.00;100408.03;6052942;28;20065;-66
2023/07/27 01:55:29;;;;;;;6.20;2.67;;;;;;;12.32;100.00;100424.66;6058936;28;20454;-66
2023/07/27 01:58:26;;;;;;;4.82;2.70;;;;;;;12.28;100.00;100422.50;6059653;28;20036;-66
2023/07/27 02:01:21;;;;;;;6.57;2.90;;;;;;;12.26;100.00;100416.50;6053129;28;20033;-66
2023/07/27 02:04:16;;;;;;;8.15;3.08;;;;;;;12.27;100.00;100407.53;6059676;28;20042;-66
2023/07/27 02:07:12;;;;;;;4.53;2.53;;;;;;;12.23;100.00;100414.19;6056807;28;20043;-66
2023/07/27 02:10:10;;;;;;;5.90;2.80;;;;;;;12.29;100.00;100418.84;6065639;28;20401;-66
2023/07/27 02:13:17;;;;;;;7.97;3.40;;;;;;;12.15;100.00;100403.56;6072308;28;20026;-66
2023/07/27 02:16:23;;;;;;;6.63;3.20;;;;;;;12.25;100.00;100412.19;6054688;28;20040;-66
2023/07/27 02:19:21;;;;;;;6.03;3.40;;;;;;;12.28;100.00;100410.06;6052157;28;20080;-66
2023/07/27 02:22:17;;;;;;;8.02;3.03;;;;;;;12.16;100.00;100391.91;6053716;28;20084;-66
2023/07/27 02:25:13;;;;;;;5.38;2.97;;;;;;;12.19;100.00;100394.25;6051572;28;20121;-66
2023/07/27 02:28:10;;;;;;;7.15;3.10;;;;;;;12.18;100.00;100395.22;6067154;28;20033;-66
2023/07/27 02:31:05;;;;;;;7.13;3.38;;;;;;;12.11;100.00;100383.59;6053549;28;20049;-66
2023/07/27 02:34:01;;;;;;;7.30;3.57;;;;;;;12.25;100.00;100401.56;6052570;28;20038;-66
2023/07/27 02:36:56;;;;;;;5.80;3.27;;;;;;;12.23;100.00;100398.25;6053583;28;20026;-67
2023/07/27 02:39:51;;;;;;;7.30;3.17;;;;;;;12.31;100.00;100400.91;6052989;28;20026;-66
2023/07/27 02:42:46;;;;;;;7.23;3.07;;;;;;;12.38;100.00;100402.75;6053302;28;20458;-67
2023/07/27 02:45:42;;;;;;;5.70;2.60;;;;;;;12.46;100.00;100397.44;6063668;28;20030;-66
2023/07/27 02:48:37;;;;;;;5.73;3.10;;;;;;;12.51;100.00;100384.47;6066125;28;20042;-66
2023/07/27 02:51:32;;;;;;;6.37;3.30;;;;;;;12.48;100.00;100389.25;6053140;28;20289;-66
2023/07/27 02:54:28;;;;;;;4.90;2.77;;;;;;;12.44;100.00;100372.00;6062010;28;20034;-67
2023/07/27 02:57:24;;;;;;;8.93;2.90;;;;;;;12.52;100.00;100382.63;6075192;28;20021;-66
2023/07/27 03:00:19;;;;;;;6.13;3.10;;;;;;;12.54;100.00;100377.97;6063442;28;20036;-67
2023/07/27 03:03:14;;;;;;;7.23;3.00;;;;;;;12.57;100.00;100377.63;6052140;28;20026;-67
2023/07/27 03:06:10;;;;;;;6.53;3.40;;;;;;;12.52;100.00;100369.34;6052479;28;20032;-66
2023/07/27 03:09:05;;;;;;;6.63;3.20;;;;;;;12.50;100.00;100366.03;6052377;28;20351;-67
2023/07/27 03:12:01;;;;;;;6.73;2.93;;;;;;;12.45;100.00;100363.84;6056876;28;20376;-66
2023/07/27 03:14:56;;;;;;;6.85;2.97;;;;;;;12.43;100.00;100357.84;6065218;28;20033;-66
2023/07/27 03:17:51;;;;;;;8.33;3.37;;;;;;;12.40;100.00;100349.38;6071886;28;20108;-66
2023/07/27 03:20:47;;;;;;;5.87;2.93;;;;;;;12.51;100.00;100365.00;6052393;28;20046;-65
2023/07/27 03:23:42;;;;;;;7.93;3.05;;;;;;;12.46;100.00;100351.38;6059628;28;20389;-66
2023/07/27 03:26:38;;;;;;;5.30;2.77;;;;;;;12.57;100.00;100364.34;6057203;28;20033;-66
2023/07/27 03:29:33;;;;;;;5.72;3.08;;;;;;;12.59;100.00;100367.66;6052261;28;20030;-66
2023/07/27 03:32:28;;;;;;;5.47;2.73;;;;;;;12.57;100.00;100364.34;6075614;28;20036;-66
2023/07/27 03:35:24;;;;;;;5.20;2.60;;;;;;;12.59;100.00;100361.50;6075247;28;20521;-66
2023/07/27 03:38:19;;;;;;;8.87;2.93;;;;;;;12.58;100.00;100355.38;6075553;28;20426;-66
2023/07/27 03:41:14;;;;;;;5.47;2.90;;;;;;;12.69;100.00;100362.97;6056804;28;20277;-66
2023/07/27 03:44:14;;;;;;;5.95;2.95;;;;;;;12.64;100.00;100336.06;6052449;28;20096;-66
2023/07/27 03:47:09;;;;;;;6.07;2.60;;;;;;;12.67;100.00;100333.06;6051640;28;20474;-66
2023/07/27 03:50:05;;;;;;;4.40;2.73;;;;;;;12.65;100.00;100328.91;6052621;28;20040;-66
2023/07/27 03:53:00;;;;;;;7.65;2.60;;;;;;;12.72;100.00;100321.94;6057820;28;20022;-66
2023/07/27 03:55:55;;;;;;;4.83;2.93;;;;;;;12.77;100.00;100323.09;6052473;28;20022;-66
2023/07/27 03:58:50;;;;;;;6.30;2.50;;;;;;;12.77;100.00;100312.44;6057908;28;20470;-66
2023/07/27 04:01:46;;;;;;;5.50;2.60;;;;;;;12.85;99.64;100308.94;6055735;28;20088;-67
2023/07/27 04:04:41;;;;;;;5.37;2.90;;;;;;;12.88;100.00;100304.06;6056735;28;20040;-67
2023/07/27 04:07:36;;;;;;;7.23;2.67;;;;;;;12.93;99.79;100304.41;6054528;28;20041;-66
2023/07/27 04:10:32;;;;;;;4.73;2.40;;;;;;;12.94;100.00;100306.06;6053115;28;20036;-66
2023/07/27 04:13:28;;;;;;;4.95;2.53;;;;;;;12.99;100.00;100308.22;6054758;28;20043;-66
2023/07/27 04:16:23;;;;;;;7.70;3.03;;;;;;;13.01;100.00;100303.56;6056364;28;20480;-66
2023/07/27 04:19:18;;;;;;;6.37;2.70;;;;;;;12.96;99.99;100288.06;6055388;28;20042;-66
2023/07/27 04:22:13;;;;;;;6.53;2.93;;;;;;;12.96;100.00;100274.75;6055358;28;20017;-66
2023/07/27 04:25:09;;;;;;;8.73;2.70;;;;;;;13.11;99.74;100298.88;6073865;28;20048;-66
2023/07/27 04:28:04;;;;;;;5.80;2.73;;;;;;;13.14;99.95;100295.88;6054748;28;20030;-66
2023/07/27 04:30:59;;;;;;;6.60;2.80;;;;;;;13.24;99.66;100295.66;6058920;28;20080;-66
2023/07/27 04:33:55;;;;;;;6.55;2.90;;;;;;;13.22;99.11;100281.69;6050181;28;20026;-67
2023/07/27 04:36:50;;;;;;;5.73;2.70;;;;;;;13.33;99.08;100276.81;6050490;28;20091;-66
2023/07/27 04:39:45;;;;;;;5.90;2.53;;;;;;;13.48;99.20;100287.56;6050642;28;20507;-66
2023/07/27 04:42:41;;;;;;;7.07;2.80;;;;;;;13.63;97.57;100293.78;6050641;28;20270;-67
2023/07/27 04:45:36;;;;;;;5.73;2.67;;;;;;;13.67;97.91;100287.09;6057180;28;20047;-66
2023/07/27 04:48:31;;;;;;;3.80;2.23;;;;;;;13.80;97.63;100289.19;6069059;28;20034;-67
2023/07/27 04:51:26;;;;;;;5.57;2.40;;;;;;;13.83;96.78;100268.34;6049869;28;20088;-66
2023/07/27 04:54:22;;;;;;;5.03;2.40;;;;;;;13.83;96.34;100260.34;6049696;28;20024;-66
2023/07/27 04:57:17;;;;;;;4.18;2.30;;;;;;;13.91;96.16;100270.97;6059055;28;20473;-66
2023/07/27 05:00:13;;;;;;;7.67;2.60;;;;;;;14.08;95.83;100264.47;6049913;28;20030;-67
2023/07/27 05:03:08;;;;;;;7.70;2.60;;;;;;;14.15;95.54;100257.41;6055388;28;20071;-67
2023/07/27 05:06:03;;;;;;;4.57;2.23;;;;;;;14.37;94.80;100254.91;6052919;28;20034;-67
2023/07/27 05:08:59;;;;;;;5.07;2.20;;;;;;;14.39;93.26;100253.72;6058440;28;20026;-66
2023/07/27 05:11:54;;;;;;;4.00;2.30;;;;;;;14.59;93.10;100257.53;6049332;28;20457;-67
2023/07/27 05:14:50;;;;;;;5.37;2.30;;;;;;;14.48;92.59;100246.47;6049313;28;20457;-67
2023/07/27 05:17:46;;;;;;;5.10;2.47;;;;;;;14.56;93.07;100249.06;6049937;28;20030;-66
2023/07/27 05:20:42;;;;;;;6.23;1.90;;;;;;;14.58;92.07;100233.69;6050060;28;20481;-66
2023/07/27 05:23:37;;;;;;;5.55;2.00;;;;;;;14.80;91.39;100241.59;6053122;28;20393;-66
2023/07/27 05:26:33;;;;;;;4.80;1.90;;;;;;;14.93;90.99;100251.63;6055205;28;20041;-67
2023/07/27 05:29:28;;;;;;;3.63;1.90;;;;;;;15.05;89.05;100242.13;6049859;28;20732;-67
2023/07/27 05:32:23;;;;;;;5.97;2.47;;;;;;;15.25;89.25;100235.19;6058260;28;20033;-66
2023/07/27 05:35:18;;;;;;;3.60;1.90;;;;;;;15.33;87.75;100220.88;6053848;28;20033;-67
2023/07/27 05:38:15;;;;;;;5.10;2.23;;;;;;;15.37;87.68;100225.66;6049561;28;20053;-66
2023/07/27 05:41:10;;;;;;;11.05;2.33;;;;;;;15.69;85.77;100236.91;6051246;28;20057;-67
2023/07/27 05:44:05;;;;;;;5.57;2.43;;;;;;;15.59;85.43;100228.38;6049295;28;20484;-67
2023/07/27 05:47:02;;;;;;;4.47;1.80;;;;;;;15.69;84.77;100243.09;6049286;28;20038;-67
2023/07/27 05:49:58;;;;;;;4.20;1.65;;;;;;;15.44;85.98;100223.88;6049232;28;20449;-67
2023/07/27 05:52:53;;;;;;;3.55;1.92;;;;;;;15.63;85.33;100243.00;6060303;28;20026;-67
2023/07/27 05:55:48;;;;;;;4.07;1.70;;;;;;;15.60;85.28;100254.91;6048711;28;20025;-67
2023/07/27 05:58:44;;;;;;;3.50;1.90;;;;;;;15.53;85.18;100247.84;6059844;28;20339;-67
2023/07/27 06:01:39;;;;;;;3.83;1.40;;;;;;;15.47;85.46;100234.22;6051277;28;20666;-67
2023/07/27 06:04:35;;;;;;;3.83;1.90;;;;;;;15.40;86.91;100238.66;6058498;28;20037;-67
2023/07/27 06:07:30;;;;;;;4.00;2.10;;;;;;;15.39;86.05;100239.66;6060199;28;20042;-67
2023/07/27 06:10:25;;;;;;;5.47;2.20;;;;;;;15.49;85.90;100240.22;6049032;28;20033;-66
2023/07/27 06:13:21;;;;;;;5.13;1.90;;;;;;;15.58;86.31;100246.25;6056953;28;20481;-67
2023/07/27 06:16:16;;;;;;;3.03;1.60;;;;;;;15.88;86.10;100268.38;6049356;28;20026;-67
2023/07/27 06:19:11;;;;;;;3.20;1.48;;;;;;;16.01;84.77;100247.91;6061090;28;20072;-68
2023/07/27 06:22:07;;;;;;;4.30;1.80;;;;;;;16.12;83.67;100246.56;6055558;28;20433;-67
2023/07/27 06:25:02;;;;;;;3.50;1.87;;;;;;;16.29;81.28;100247.94;6057361;28;20032;-67
2023/07/27 06:27:57;;;;;;;3.50;1.70;;;;;;;16.17;81.93;100249.47;6054083;28;20068;-67
2023/07/27 06:30:53;;;;;;;3.23;1.53;;;;;;;16.16;82.89;100263.06;6053743;28;20288;-67
2023/07/27 06:33:48;;;;;;;4.80;1.70;;;;;;;16.06;82.89;100242.81;6056433;28;20044;-67
2023/07/27 06:36:43;;;;;;;5.87;1.90;;;;;;;16.26;82.68;100250.19;6057103;28;20030;-67
2023/07/27 06:39:39;;;;;;;3.30;1.80;;;;;;;16.02;82.82;100243.41;6064515;28;20029;-67
2023/07/27 06:42:34;;;;;;;3.23;1.60;;;;;;;15.88;82.35;100236.28;6053512;28;20107;-67
2023/07/27 06:45:29;;;;;;;4.73;1.80;;;;;;;15.94;83.56;100246.22;6056580;28;20041;-67
2023/07/27 06:48:24;;;;;;;4.40;1.90;;;;;;;16.03;82.57;100250.41;6054007;28;20101;-67
2023/07/27 06:51:22;;;;;;;4.30;1.77;;;;;;;16.04;82.73;100230.66;6056869;28;20091;-67
2023/07/27 06:54:18;;;;;;;4.57;1.90;;;;;;;15.88;83.21;100236.28;6056317;28;20593;-67
2023/07/27 06:57:13;;;;;;;4.30;1.77;;;;;;;16.00;81.97;100245.44;6052988;28;20120;-67
2023/07/27 07:00:09;;;;;;;2.77;1.73;;;;;;;15.90;83.49;100229.72;6055120;28;20666;-67
2023/07/27 07:03:05;;;;;;;4.97;2.08;;;;;;;16.03;82.63;100243.19;6056213;28;20022;-67
2023/07/27 07:06:00;;;;;;;6.13;1.70;;;;;;;16.15;83.04;100226.63;6051930;28;20030;-67
2023/07/27 07:08:57;;;;;;;3.27;1.63;;;;;;;16.26;82.35;100234.94;6060200;28;20338;-67
2023/07/27 07:11:52;;;;;;;4.80;1.85;;;;;;;16.32;82.19;100226.16;6052289;28;20469;-67
2023/07/27 07:14:47;;;;;;;3.17;1.60;;;;;;;16.73;80.16;100230.78;6054567;28;20033;-67
2023/07/27 07:17:43;;;;;;;3.80;2.13;;;;;;;16.91;79.12;100231.06;6052240;28;20731;-67
2023/07/27 07:20:38;;;;;;;2.87;1.77;;;;;;;16.73;78.28;100225.41;6054778;28;20026;-67
2023/07/27 07:23:33;;;;;;;4.80;1.77;;;;;;;16.61;79.55;100236.66;6061692;28;20045;-67
2023/07/27 07:26:28;;;;;;;3.70;1.97;;;;;;;16.60;80.03;100235.00;6062749;28;20037;-67
2023/07/27 07:29:24;;;;;;;5.23;2.50;;;;;;;16.57;80.62;100235.44;6051904;28;20036;-67
2023/07/27 07:32:19;;;;;;;6.10;1.80;;;;;;;16.54;80.51;100230.47;6051551;28;20045;-67
2023/07/27 07:35:14;;;;;;;5.67;1.90;;;;;;;16.51;80.39;100232.66;6050812;28;20280;-67
2023/07/27 07:38:10;;;;;;;6.83;1.80;;;;;;;16.38;81.64;100230.75;6055059;28;20031;-66
2023/07/27 07:41:05;;;;;;;4.53;2.10;;;;;;;16.31;81.53;100216.47;6051897;28;20025;-66
2023/07/27 07:44:01;;;;;;;4.77;1.70;;;;;;;16.06;83.34;100212.59;6050470;28;20426;-67
2023/07/27 07:46:57;;;;;;;3.95;1.95;;;;;;;15.97;85.10;100224.44;6051502;28;20029;-65
2023/07/27 07:49:52;;;;;;;3.13;1.60;;;;;;;15.95;86.55;100221.13;6051926;28;20056;-66
2023/07/27 07:52:47;;;;;;;4.43;2.03;;;;;;;15.76;88.19;100205.75;6051075;28;20112;-66
2023/07/27 07:55:43;;;;;;;3.60;1.90;;;;;;;15.82;89.92;100221.81;6054236;28;20037;-67
2023/07/27 07:58:38;;;;;;;4.60;2.00;;;;;;;15.64;91.61;100226.81;6052873;28;20037;-64
2023/07/27 08:01:34;;;;;;;7.57;2.35;;;;;;;15.43;92.65;100210.72;6049927;28;20385;-66
2023/07/27 08:04:30;;;;;;;5.95;2.38;;;;;;;15.19;94.81;100187.03;6051618;28;20030;-64
2023/07/27 08:07:26;;;;;;;4.85;2.22;;;;;;;15.25;95.26;100218.31;6041738;28;20041;-64
2023/07/27 08:10:21;;;;;;;5.07;2.00;;;;;;;15.14;96.77;100203.59;6053660;28;20044;-65
2023/07/27 08:13:16;;;;;;;4.30;2.00;;;;;;;15.10;98.06;100191.66;6052308;28;20449;-63
2023/07/27 08:16:11;;;;;;;7.17;2.53;;;;;;;14.97;99.36;100204.84;6047852;28;20034;-63
2023/07/27 08:19:07;;;;;;;6.33;2.53;;;;;;;14.95;100.00;100201.53;6049604;28;20073;-64
2023/07/27 08:22:02;;;;;;;6.40;2.53;;;;;;;15.00;99.87;100191.09;6046965;28;20108;-64
2023/07/27 08:24:58;;;;;;;8.43;2.53;;;;;;;15.01;99.55;100179.41;6058213;28;20126;-63
2023/07/27 08:27:53;;;;;;;5.27;2.20;;;;;;;15.23;100.00;100186.47;6052150;28;20045;-63
2023/07/27 08:30:49;;;;;;;4.53;2.03;;;;;;;15.13;100.00;100179.78;6059458;28;20449;-63
2023/07/27 08:33:44;;;;;;;6.30;2.50;;;;;;;14.98;100.00;100158.44;6048027;28;20069;-64
2023/07/27 08:36:39;;;;;;;4.07;2.40;;;;;;;15.09;100.00;100186.50;6056096;28;20508;-63
2023/07/27 08:39:34;;;;;;;6.67;3.00;;;;;;;15.13;100.00;100169.91;6055140;28;20049;-64
2023/07/27 08:42:31;;;;;;;7.90;2.90;;;;;;;15.18;100.00;100154.16;6046938;28;20037;-63
2023/07/27 08:45:26;;;;;;;5.65;2.00;;;;;;;15.20;100.00;100157.44;6053412;28;20109;-64
2023/07/27 08:48:23;;;;;;;5.43;2.70;;;;;;;15.36;100.00;100159.88;6047709;28;20030;-64
2023/07/27 08:51:18;;;;;;;4.75;2.60;;;;;;;15.33;100.00;100149.56;6046942;28;20072;-67
2023/07/27 08:54:14;;;;;;;6.83;2.80;;;;;;;15.30;100.00;100149.16;6045931;28;20377;-64
2023/07/27 08:57:09;;;;;;;6.55;2.60;;;;;;;15.47;100.00;100131.84;6070585;28;20376;-64
2023/07/27 09:00:05;;;;;;;5.47;2.77;;;;;;;15.59;99.98;100124.16;6049984;28;20121;-64
2023/07/27 09:03:01;;;;;;;5.90;2.55;;;;;;;15.97;98.74;100117.44;6045538;28;20064;-65
2023/07/27 09:05:58;;;;;;;5.85;2.83;;;;;;;15.78;99.78;100118.13;6049834;28;20115;-64
2023/07/27 09:08:53;;;;;;;4.68;2.60;;;;;;;15.73;99.44;100109.88;6058373;28;20037;-64
2023/07/27 09:11:49;;;;;;;6.47;2.40;;;;;;;15.63;100.00;100098.66;6046134;28;20076;-64
2023/07/27 09:14:45;;;;;;;4.40;2.63;;;;;;;15.71;100.00;100115.41;6057420;28;20033;-64
2023/07/27 09:17:40;;;;;;;5.20;2.90;;;;;;;15.65;100.00;100102.84;6047092;28;20045;-64
2023/07/27 09:20:35;;;;;;;4.60;2.58;;;;;;;15.69;100.00;100081.84;6045014;28;20390;-63
2023/07/27 09:23:31;;;;;;;6.40;2.53;;;;;;;15.75;100.00;100073.06;6053256;28;20053;-64
2023/07/27 09:26:26;;;;;;;5.80;2.23;;;;;;;15.92;100.00;100087.81;6047378;28;20685;-63
2023/07/27 09:29:21;;;;;;;5.50;2.93;;;;;;;15.81;100.00;100073.13;6046350;28;20037;-64
2023/07/27 09:32:17;;;;;;;5.63;2.78;;;;;;;15.76;100.00;100093.44;6065457;28;20029;-63
2023/07/27 09:35:13;;;;;;;5.33;2.80;;;;;;;15.72;100.00;100076.97;6063456;28;20030;-63
2023/07/27 09:38:09;;;;;;;6.57;2.80;;;;;;;15.82;100.00;100087.28;6046530;28;20093;-63
2023/07/27 09:41:08;;;;;;;4.65;2.33;;;;;;;15.74;100.00;100061.53;6045620;28;20030;-63
2023/07/27 09:44:04;;;;;;;6.68;2.53;;;;;;;15.88;100.00;100075.81;6045661;28;20395;-63
2023/07/27 09:46:59;;;;;;;5.18;2.50;;;;;;;15.83;100.00;100070.25;6045172;28;20026;-64
2023/07/27 09:49:57;;;;;;;4.90;2.57;;;;;;;15.79;100.00;100074.34;6045916;28;20381;-64
2023/07/27 09:52:53;;;;;;;6.75;2.63;;;;;;;15.85;100.00;100081.56;6045396;28;20374;-64
2023/07/27 09:55:50;;;;;;;2.97;2.20;;;;;;;15.89;100.00;100077.50;6045693;28;20052;-64
2023/07/27 09:58:46;;;;;;;7.07;3.58;;;;;;;15.65;100.00;100054.72;6050122;28;20034;-64
2023/07/27 10:01:41;;;;;;;4.20;2.38;;;;;;;15.75;100.00;100065.03;6050319;28;20033;-64
2023/07/27 10:04:37;;;;;;;7.33;2.67;;;;;;;15.90;100.00;100069.25;6061751;28;20500;-64
2023/07/27 10:07:32;;;;;;;5.60;2.87;;;;;;;15.81;100.00;100059.75;6050325;28;20152;-64
2023/07/27 10:10:33;;;;;;;6.30;2.33;;;;;;;15.73;100.00;100069.78;6052547;28;20116;-64
2023/07/27 10:13:30;;;;;;;6.20;2.83;;;;;;;15.66;100.00;100069.72;6049871;28;20042;-64
2023/07/27 10:16:28;;;;;;;6.28;2.67;;;;;;;15.66;100.00;100053.69;6049737;28;20041;-64
2023/07/27 10:19:25;;;;;;;8.77;3.67;;;;;;;15.38;100.00;100036.78;6052565;28;20030;-64
2023/07/27 10:22:20;;;;;;;5.00;2.60;;;;;;;15.32;100.00;100054.41;6054878;28;20037;-64
2023/07/27 10:25:15;;;;;;;8.97;3.23;;;;;;;15.12;100.00;100044.56;6069843;28;20037;-63
2023/07/27 10:28:10;;;;;;;8.50;3.27;;;;;;;15.00;100.00;100041.56;6062122;28;20028;-63
2023/07/27 10:31:24;;;;;;;6.47;3.10;;;;;;;15.02;100.00;100052.06;6067480;28;20041;-63
2023/07/27 10:34:21;;;;;;;8.57;4.30;;;;;;;14.94;100.00;100036.19;6049562;28;20053;-63
2023/07/27 10:37:16;;;;;;;8.02;4.30;;;;;;;14.79;100.00;100005.03;6048760;28;20109;-63
2023/07/27 10:40:23;;;;;;;9.50;4.93;;;;;;;14.88;100.00;100019.91;6059152;28;20034;-63
2023/07/27 10:43:18;;;;;;;9.55;5.18;;;;;;;14.97;100.00;100023.28;6059639;28;20041;-63
2023/07/27 10:46:23;;;;;;;9.00;4.77;;;;;;;14.94;100.00;100018.31;6050007;28;20460;-63
2023/07/27 10:49:18;;;;;;;8.48;4.53;;;;;;;14.87;100.00;100002.22;6062143;28;20572;-63
2023/07/27 10:52:16;;;;;;;7.00;3.77;;;;;;;14.99;100.00;100007.91;6048957;28;20026;-63
2023/07/27 10:55:11;;;;;;;9.32;3.92;;;;;;;14.96;100.00;99994.91;6048712;28;20500;-63
2023/07/27 10:58:09;;;;;;;7.03;3.67;;;;;;;15.17;100.00;100002.91;6049098;28;20026;-63
2023/07/27 11:01:04;;;;;;;9.13;4.00;;;;;;;14.98;100.00;99971.50;6047729;28;20030;-63
2023/07/27 11:03:59;;;;;;;8.23;4.07;;;;;;;15.07;100.00;99975.72;6048337;28;20112;-63
2023/07/27 11:06:55;;;;;;;6.80;4.13;;;;;;;14.93;100.00;99987.28;6050254;28;20038;-63
2023/07/27 11:09:50;;;;;;;10.10;4.60;;;;;;;14.91;100.00;99970.66;6048124;28;20030;-63
2023/07/27 11:12:52;;;;;;;9.00;4.83;;;;;;;14.94;100.00;99964.94;6048730;28;20422;-64
2023/07/27 11:15:48;;;;;;;11.95;4.93;;;;;;;15.02;100.00;99967.47;6057100;28;20464;-63
2023/07/27 11:18:43;;;;;;;9.77;5.17;;;;;;;15.05;100.00;99967.06;6048939;28;20045;-63
2023/07/27 11:21:40;;;;;;;9.55;5.05;;;;;;;14.96;100.00;99949.53;6047560;28;20105;-63
2023/07/27 11:24:35;;;;;;;10.52;4.97;;;;;;;15.05;100.00;99953.72;6046358;28;20049;-63
2023/07/27 11:27:30;;;;;;;10.83;5.10;;;;;;;14.99;100.00;99946.47;6049164;28;20628;-63
2023/07/27 11:30:26;;;;;;;12.77;6.13;;;;;;;15.07;100.00;99949.00;6048695;28;20281;-63
2023/07/27 11:33:26;;;;;;;9.40;5.43;;;;;;;15.02;100.00;99948.75;6047778;28;20319;-64
2023/07/27 11:36:21;;;;;;;10.27;4.30;;;;;;;14.81;100.00;99912.22;6055324;28;20355;-63
2023/07/27 11:39:17;;;;;;;10.77;4.70;;;;;;;15.02;100.00;99943.44;6048524;28;20041;-63
2023/07/27 11:42:13;;;;;;;8.80;4.77;;;;;;;15.00;100.00;99932.09;6047752;28;20044;-63
2023/07/27 11:45:10;;;;;;;8.57;4.55;;;;;;;15.04;100.00;99930.69;6047200;28;20360;-63
2023/07/27 11:48:05;;;;;;;9.45;4.85;;;;;;;15.13;100.00;99910.03;6046698;28;20130;-64
2023/07/27 11:51:02;;;;;;;10.25;5.65;;;;;;;15.02;100.00;99914.06;6050706;28;20037;-63
2023/07/27 11:53:58;;;;;;;6.85;3.28;;;;;;;15.10;100.00;99905.91;6055521;28;20034;-63
2023/07/27 11:56:55;;;;;;;6.28;3.70;;;;;;;15.28;100.00;99908.88;6049808;28;20061;-63
2023/07/27 12:00:10;;;;;;;12.88;4.03;;;;;;;15.38;100.00;99895.97;6057978;28;20069;-63
2023/07/27 12:03:05;;;;;;;5.75;3.15;;;;;;;15.30;100.00;99896.16;6047729;28;20038;-63
2023/07/27 12:06:02;;;;;;;4.43;2.42;;;;;;;15.35;100.00;99904.41;6050456;28;20032;-63
2023/07/27 12:08:58;;;;;;;5.90;2.90;;;;;;;15.39;100.00;99899.50;6059220;28;20094;-63
2023/07/27 12:11:53;;;;;;;5.43;2.58;;;;;;;15.31;100.00;99891.63;6053442;28;20030;-64
2023/07/27 12:14:49;;;;;;;3.60;1.90;;;;;;;15.17;100.00;99893.41;6049498;28;20034;-64
2023/07/27 12:17:52;;;;;;;3.70;2.00;;;;;;;15.32;100.00;99904.81;6050643;28;20033;-63
2023/07/27 12:20:47;;;;;;;6.80;2.42;;;;;;;15.32;100.00;99910.16;6050018;28;20026;-64
2023/07/27 12:23:42;;;;;;;3.67;2.15;;;;;;;15.20;100.00;99895.69;6055153;28;20033;-63
2023/07/27 12:26:38;;;;;;;4.60;2.63;;;;;;;15.32;100.00;99914.66;6051148;28;20038;-63
2023/07/27 12:29:33;;;;;;;5.93;2.37;;;;;;;15.12;100.00;99895.84;6050824;28;20033;-63
2023/07/27 12:32:28;;;;;;;3.67;2.27;;;;;;;15.13;100.00;99884.16;6056408;28;20030;-62
2023/07/27 12:35:23;;;;;;;4.63;2.40;;;;;;;15.02;100.00;99879.34;6054103;28;20052;-63
2023/07/27 12:38:19;;;;;;;3.97;2.40;;;;;;;15.01;100.00;99864.31;6049672;28;20377;-63
2023/07/27 12:41:15;;;;;;;4.28;2.10;;;;;;;15.09;100.00;99869.50;6049366;28;20061;-62
2023/07/27 12:44:10;;;;;;;3.63;2.15;;;;;;;15.03;100.00;99866.81;6055039;28;20048;-63
2023/07/27 12:47:05;;;;;;;5.27;2.30;;;;;;;15.13;100.00;99873.47;6055059;28;20357;-63
2023/07/27 12:50:01;;;;;;;3.50;1.90;;;;;;;15.21;100.00;99870.63;6052622;28;20122;-63
2023/07/27 12:52:56;;;;;;;4.53;2.42;;;;;;;15.13;100.00;99857.44;6048140;28;20044;-62
2023/07/27 12:55:52;;;;;;;4.47;2.35;;;;;;;15.42;100.00;99877.72;6048336;28;20056;-63
2023/07/27 12:58:47;;;;;;;4.00;2.30;;;;;;;15.28;100.00;99855.47;6058431;28;20037;-63
2023/07/27 13:01:42;;;;;;;4.97;2.70;;;;;;;15.38;100.00;99866.59;6047272;28;20061;-62
2023/07/27 13:04:37;;;;;;;5.13;2.43;;;;;;;15.41;100.00;99852.84;6040094;28;20044;-62
2023/07/27 13:07:33;;;;;;;3.77;2.43;;;;;;;15.51;100.00;99841.00;6047660;28;20034;-63
2023/07/27 13:10:28;;;;;;;3.25;1.75;;;;;;;15.47;100.00;99838.72;6052736;28;20032;-62
2023/07/27 13:13:23;;;;;;;4.83;2.03;;;;;;;15.55;100.00;99831.56;6047576;28;20072;-63
2023/07/27 13:16:19;;;;;;;5.10;2.50;;;;;;;15.72;100.00;99840.88;6052746;28;20481;-63
2023/07/27 13:19:14;;;;;;;5.30;2.07;;;;;;;15.75;100.00;99835.13;6048361;28;20092;-63
2023/07/27 13:22:09;;;;;;;4.50;2.00;;;;;;;15.64;100.00;99825.84;6054182;28;20029;-63
2023/07/27 13:25:05;;;;;;;4.33;2.00;;;;;;;15.66;100.00;99820.28;6053451;28;20381;-63
2023/07/27 13:28:00;;;;;;;4.07;2.10;;;;;;;15.69;100.00;99819.88;6051429;28;20048;-62
2023/07/27 13:30:56;;;;;;;3.30;2.10;;;;;;;15.82;100.00;99815.41;6062241;28;20032;-63
2023/07/27 13:33:51;;;;;;;3.83;2.37;;;;;;;15.94;100.00;99807.63;6050829;28;20123;-63
2023/07/27 13:36:46;;;;;;;3.57;1.90;;;;;;;15.87;100.00;99810.28;6052046;28;20037;-63